Nyarugumba, Rwanda

68°F / 20°C
Scattered Clouds
Humidity: 73%
Dew Point: 59°F / 15°C
Wind: NNW at 4 mph / 6 km/h
Pressure: 30.15 in / 1021 hPa (Steady)
Visibility: 6.2 miles / 10.0 kilometers
Clouds: Scattered Clouds (SCT) : 2500 ft / 762 m
Scattered Clouds (SCT) : 10000 ft / 3048 m
Yesterday's Maximum: 82°F / 28°C
Yesterday's Minimum: 63°F / 17°C approx.
Yesterday's Cooling Degree Days: 8 approx.
UV: 0 out of 16
Sunrise:6:07 AM CAT
Sunset:6:17 PM CAT
Moon Rise:4:19 PM CAT
Moon Set:3:42 AM CAT
Moon Phase Waxing Gibbous
NOAA Weather Radio
No local feed.
METAR HRYR 172000Z 33003KT 9999 SCT025 SCT100 20/15 Q1021 NOSIG
As of: 10:00 PM CAT on February 17, 2019
Observed at: Kigali, Rwanda

View Station's History

Local Satellite

Current Satellite Forecast
Region Default Local
No Yes

View Full Screen WunderMap

Forecast

Current Satellite Forecast

Features

Weather Apps

WunderRadio

Weather Underground Apps
Check out our wide variety of mobile and setup applications.

Weather Underground Applications

Top of Page

© Copyright 2019
The Weather Company, LLC